Time;durP1;ratioP1;P1;durP2;ratioP2;P2;SDS_P1;SDS_P2;PMS_P1;PMS_P2;Temp;Humidity;BMP_temperature;BMP_pressure;BME280_temperature;BME280_humidity;BME280_pressure;Samples;Min_cycle;Max_cycle;Signal;HPM_P1;HPM_P2
2022/01/11 05:14:38;;;;;;;3.30;3.10;;;-0.80;99.90;;;;;;5833983;22;20311;-68
2022/01/11 05:17:06;;;;;;;4.07;2.95;;;-0.80;99.90;;;;;;5076470;28;20295;-68
2022/01/11 05:19:33;;;;;;;3.35;3.00;;;-0.80;99.90;;;;;;5076559;28;20285;-67
2022/01/11 05:21:59;;;;;;;2.85;2.65;;;-0.80;99.90;;;;;;5076004;28;20227;-67
2022/01/11 05:24:26;;;;;;;3.15;2.95;;;-0.80;99.90;;;;;;5075989;28;20306;-67
2022/01/11 05:26:53;;;;;;;3.50;2.80;;;-0.80;99.90;;;;;;5076213;28;20243;-67
2022/01/11 05:29:20;;;;;;;3.22;3.03;;;-0.80;99.90;;;;;;5075600;28;20208;-68
2022/01/11 05:31:49;;;;;;;3.38;3.17;;;-0.80;99.90;;;;;;5073875;28;20196;-67
2022/01/11 05:34:16;;;;;;;3.03;2.83;;;-0.80;99.90;;;;;;5073833;28;20653;-68
2022/01/11 05:36:43;;;;;;;3.33;3.08;;;-0.70;99.90;;;;;;5074249;28;20320;-67
2022/01/11 05:39:10;;;;;;;4.28;3.38;;;-0.80;99.90;;;;;;5074195;28;20204;-66
2022/01/11 05:41:37;;;;;;;3.60;3.33;;;-0.80;99.90;;;;;;5074096;28;20283;-66
2022/01/11 05:44:03;;;;;;;7.68;5.60;;;-0.70;99.90;;;;;;5074006;28;20259;-66
2022/01/11 05:46:31;;;;;;;5.55;5.03;;;-0.70;99.90;;;;;;5073849;28;20754;-69
2022/01/11 05:48:59;;;;;;;5.53;5.03;;;-0.60;99.90;;;;;;5074503;28;20199;-70
2022/01/11 05:51:26;;;;;;;6.63;5.78;;;-0.50;99.90;;;;;;5074396;28;20286;-69
2022/01/11 05:53:53;;;;;;;6.93;5.18;;;-0.40;99.90;;;;;;5073809;28;20196;-70
2022/01/11 05:56:21;;;;;;;10.65;6.60;;;-0.30;99.90;;;;;;5073766;28;20288;-70
2022/01/11 05:58:47;;;;;;;7.82;6.55;;;-0.20;99.90;;;;;;5073827;28;20204;-70
2022/01/11 06:01:15;;;;;;;12.98;8.57;;;-0.20;99.90;;;;;;5073791;28;20235;-70
2022/01/11 06:03:42;;;;;;;11.15;8.10;;;-0.10;99.90;;;;;;5073441;28;20690;-71
2022/01/11 06:06:10;;;;;;;12.30;8.70;;;0.00;99.90;;;;;;5073400;28;20560;-70
2022/01/11 06:08:37;;;;;;;14.45;8.27;;;0.00;99.90;;;;;;5073535;28;20206;-70
2022/01/11 06:11:06;;;;;;;15.57;9.18;;;0.10;99.90;;;;;;5072080;28;20302;-70
2022/01/11 06:13:33;;;;;;;13.18;7.82;;;0.10;99.90;;;;;;5073349;28;20200;-70
2022/01/11 06:16:00;;;;;;;12.48;7.97;;;0.20;99.90;;;;;;5073667;28;20655;-70
2022/01/11 06:18:27;;;;;;;15.30;9.15;;;0.20;99.90;;;;;;5073867;28;20203;-70
2022/01/11 06:20:53;;;;;;;14.77;9.25;;;0.20;99.90;;;;;;5073362;28;20295;-70
2022/01/11 06:23:22;;;;;;;14.02;9.00;;;0.20;99.90;;;;;;5078017;28;20311;-70
2022/01/11 06:25:49;;;;;;;14.30;9.07;;;0.30;99.90;;;;;;5077867;28;20283;-70
2022/01/11 06:28:16;;;;;;;10.27;7.53;;;0.30;99.90;;;;;;5077830;28;20231;-70
2022/01/11 06:30:43;;;;;;;12.85;7.75;;;0.30;99.90;;;;;;5073655;28;20291;-70
2022/01/11 06:33:10;;;;;;;10.27;7.57;;;0.30;99.90;;;;;;5073731;28;20196;-70
2022/01/11 06:35:37;;;;;;;9.13;6.25;;;0.40;99.90;;;;;;5073583;28;20235;-70
2022/01/11 06:38:04;;;;;;;13.32;7.72;;;0.40;99.90;;;;;;5073526;28;20282;-70
2022/01/11 06:40:33;;;;;;;9.93;7.07;;;0.40;99.90;;;;;;5073612;28;20287;-70
2022/01/11 06:43:00;;;;;;;10.30;7.40;;;0.50;99.90;;;;;;5074148;28;20761;-70
2022/01/11 06:45:27;;;;;;;11.50;7.18;;;0.50;99.90;;;;;;5074091;28;20220;-70
2022/01/11 06:47:54;;;;;;;11.10;7.40;;;0.50;99.90;;;;;;5074265;28;20667;-70
2022/01/11 06:50:21;;;;;;;9.98;7.10;;;0.50;99.90;;;;;;5075033;28;20212;-70
2022/01/11 06:52:48;;;;;;;10.70;7.20;;;0.60;99.90;;;;;;5073843;28;20283;-70
2022/01/11 06:55:17;;;;;;;8.63;6.93;;;0.60;99.90;;;;;;5073362;28;20219;-70
2022/01/11 06:57:45;;;;;;;8.88;6.32;;;0.60;99.90;;;;;;5073443;28;20200;-70
2022/01/11 07:00:13;;;;;;;11.18;6.32;;;0.70;99.90;;;;;;5073081;28;20382;-69
2022/01/11 07:02:40;;;;;;;9.25;6.55;;;0.70;99.90;;;;;;5072787;28;20196;-70
2022/01/11 07:05:09;;;;;;;10.38;6.93;;;0.70;99.90;;;;;;5073099;28;20230;-69
2022/01/11 07:07:36;;;;;;;10.88;7.60;;;0.70;99.90;;;;;;5072856;28;20287;-69
2022/01/11 07:10:04;;;;;;;8.57;6.78;;;0.70;99.90;;;;;;5073135;28;20203;-69
2022/01/11 07:12:31;;;;;;;9.25;6.63;;;0.70;99.90;;;;;;5074010;28;20273;-69
2022/01/11 07:14:59;;;;;;;8.68;6.57;;;0.70;99.90;;;;;;5072944;28;20298;-69
2022/01/11 07:17:27;;;;;;;7.10;5.75;;;0.70;99.90;;;;;;5072742;28;20294;-69
2022/01/11 07:19:54;;;;;;;7.50;6.72;;;0.70;99.90;;;;;;5072693;28;20636;-66
2022/01/11 07:22:21;;;;;;;13.43;7.07;;;0.70;99.90;;;;;;5075464;28;20223;-66
2022/01/11 07:24:49;;;;;;;10.25;7.00;;;0.70;99.90;;;;;;5076298;28;20250;-66
2022/01/11 07:27:15;;;;;;;13.80;7.53;;;0.70;99.90;;;;;;5076323;28;20667;-66
2022/01/11 07:29:43;;;;;;;13.13;8.20;;;0.70;99.90;;;;;;5076582;28;20630;-67
2022/01/11 07:32:11;;;;;;;8.20;6.68;;;0.70;99.90;;;;;;5076527;28;20232;-66
2022/01/11 07:34:38;;;;;;;10.20;7.03;;;0.70;99.90;;;;;;5076667;28;20222;-66
2022/01/11 07:37:05;;;;;;;9.32;7.00;;;0.70;99.90;;;;;;5076118;28;20666;-66
2022/01/11 07:39:32;;;;;;;11.18;7.15;;;0.70;99.90;;;;;;5076048;28;20742;-67
2022/01/11 07:41:59;;;;;;;10.05;7.28;;;0.70;99.90;;;;;;5076212;28;20191;-67
2022/01/11 07:44:25;;;;;;;10.57;6.95;;;0.70;99.90;;;;;;5076167;28;20310;-67
2022/01/11 07:46:53;;;;;;;11.93;7.63;;;0.70;99.90;;;;;;5076322;28;20232;-66
2022/01/11 07:49:21;;;;;;;12.98;8.00;;;0.70;99.90;;;;;;5076204;28;20208;-66
2022/01/11 07:51:48;;;;;;;11.65;7.65;;;0.70;99.90;;;;;;5076245;28;20283;-66
2022/01/11 07:54:16;;;;;;;13.25;7.95;;;0.70;99.90;;;;;;5076050;28;20306;-66
2022/01/11 07:56:42;;;;;;;11.23;7.90;;;0.70;99.90;;;;;;5076174;28;20294;-66
2022/01/11 07:59:11;;;;;;;13.65;8.23;;;0.70;99.90;;;;;;5076118;28;20206;-66
2022/01/11 08:01:38;;;;;;;11.43;7.80;;;0.70;99.90;;;;;;5075814;28;20236;-66
2022/01/11 08:04:05;;;;;;;11.48;7.50;;;0.80;99.90;;;;;;5075849;28;20227;-69
2022/01/11 08:06:34;;;;;;;11.00;7.70;;;0.80;99.90;;;;;;5075990;28;20196;-69
2022/01/11 08:09:01;;;;;;;10.90;6.88;;;0.80;99.90;;;;;;5076010;28;20196;-69
2022/01/11 08:11:31;;;;;;;9.98;6.70;;;0.80;99.90;;;;;;5075854;28;20287;-69
2022/01/11 08:13:58;;;;;;;10.45;7.65;;;0.90;99.90;;;;;;5075758;28;20192;-69
2022/01/11 08:16:25;;;;;;;10.82;8.52;;;1.10;99.90;;;;;;5075579;28;20297;-69
2022/01/11 08:18:52;;;;;;;10.52;8.27;;;1.20;99.90;;;;;;5075675;28;20291;-69
2022/01/11 08:21:19;;;;;;;9.02;6.78;;;1.50;99.90;;;;;;5075388;28;20294;-69
2022/01/11 08:23:47;;;;;;;8.48;7.20;;;1.80;99.90;;;;;;5075554;28;20310;-69
2022/01/11 08:26:14;;;;;;;11.00;6.75;;;1.90;99.90;;;;;;5075223;28;20271;-69
2022/01/11 08:28:43;;;;;;;9.65;7.18;;;2.00;99.90;;;;;;5075671;28;20211;-69
2022/01/11 08:31:10;;;;;;;8.52;6.97;;;2.00;99.90;;;;;;5075419;28;20204;-68
2022/01/11 08:33:38;;;;;;;10.40;7.40;;;1.90;99.90;;;;;;5074316;28;20206;-68
2022/01/11 08:36:06;;;;;;;7.20;6.43;;;1.90;99.90;;;;;;5075793;28;20242;-69
2022/01/11 08:38:32;;;;;;;11.02;6.93;;;1.90;99.90;;;;;;5075482;28;20566;-68
2022/01/11 08:41:01;;;;;;;8.02;6.63;;;1.90;99.90;;;;;;5075534;28;20227;-68
2022/01/11 08:43:27;;;;;;;9.27;6.90;;;1.80;99.90;;;;;;5075320;28;20200;-68
2022/01/11 08:45:54;;;;;;;9.50;6.75;;;1.70;99.90;;;;;;5075228;28;20310;-69
2022/01/11 08:48:22;;;;;;;8.25;7.05;;;1.60;99.90;;;;;;5075163;28;20658;-68
2022/01/11 08:50:52;;;;;;;9.23;7.43;;;1.60;99.90;;;;;;5075501;28;20246;-69
2022/01/11 08:53:20;;;;;;;12.77;9.25;;;1.70;99.90;;;;;;5075447;28;20295;-68
2022/01/11 08:55:47;;;;;;;16.67;9.65;;;1.80;99.90;;;;;;5074896;28;20303;-68
2022/01/11 08:58:15;;;;;;;13.30;9.23;;;1.70;99.90;;;;;;5074988;28;20239;-66
2022/01/11 09:00:42;;;;;;;13.65;8.85;;;1.60;99.90;;;;;;5074878;28;20285;-66
2022/01/11 09:03:11;;;;;;;11.63;8.02;;;1.60;99.90;;;;;;5074511;28;20292;-66
2022/01/11 09:05:38;;;;;;;8.38;6.60;;;1.70;99.90;;;;;;5074295;28;20228;-66
2022/01/11 09:08:05;;;;;;;7.65;6.47;;;1.70;99.90;;;;;;5074904;28;20295;-67
2022/01/11 09:10:32;;;;;;;7.45;5.75;;;1.80;99.90;;;;;;5074681;28;20286;-66
2022/01/11 09:12:59;;;;;;;10.38;7.30;;;1.90;99.90;;;;;;5074569;28;20644;-66
2022/01/11 09:15:28;;;;;;;9.48;6.38;;;1.70;99.90;;;;;;5073993;28;20310;-66
2022/01/11 09:17:55;;;;;;;8.80;6.68;;;1.60;99.90;;;;;;5075558;28;20196;-66
2022/01/11 09:20:23;;;;;;;7.13;6.30;;;1.50;99.90;;;;;;5074297;28;20200;-68
2022/01/11 09:22:49;;;;;;;9.05;6.05;;;1.50;99.90;;;;;;5074565;28;20303;-67
2022/01/11 09:25:17;;;;;;;7.10;5.72;;;1.40;99.90;;;;;;5074185;28;20234;-67
2022/01/11 09:27:44;;;;;;;7.07;5.82;;;1.40;99.90;;;;;;5073919;28;20734;-66
2022/01/11 09:30:13;;;;;;;7.50;6.32;;;1.50;99.90;;;;;;5074140;28;20722;-67
2022/01/11 09:32:43;;;;;;;7.63;6.45;;;1.50;99.90;;;;;;5074267;28;20196;-67
2022/01/11 09:35:12;;;;;;;9.27;7.35;;;1.60;99.90;;;;;;5073845;28;20769;-67
2022/01/11 09:37:39;;;;;;;6.78;6.18;;;1.60;99.90;;;;;;5074011;28;20291;-67
2022/01/11 09:40:08;;;;;;;6.40;5.57;;;1.60;99.90;;;;;;5074242;28;20223;-67
2022/01/11 09:42:35;;;;;;;8.75;6.43;;;1.50;99.90;;;;;;5074065;28;20287;-67
2022/01/11 09:45:04;;;;;;;10.23;7.32;;;1.50;99.90;;;;;;5073623;28;20713;-67
2022/01/11 09:47:31;;;;;;;8.55;6.88;;;1.50;99.90;;;;;;5074054;28;20249;-67
2022/01/11 09:49:59;;;;;;;8.75;7.03;;;1.60;99.90;;;;;;5074167;28;20246;-67
2022/01/11 09:52:27;;;;;;;9.13;6.80;;;1.60;99.90;;;;;;5073997;28;20287;-67
2022/01/11 09:55:01;;;;;;;11.25;6.22;;;1.60;99.90;;;;;;5073953;28;20251;-67
2022/01/11 09:57:28;;;;;;;9.25;6.28;;;1.60;99.90;;;;;;5073742;28;20628;-67
2022/01/11 09:59:54;;;;;;;6.70;5.80;;;1.70;99.90;;;;;;5073828;28;20299;-67
2022/01/11 10:02:22;;;;;;;6.13;5.53;;;1.70;99.90;;;;;;5073979;28;20243;-67
2022/01/11 10:04:58;;;;;;;5.97;5.18;;;1.70;99.90;;;;;;5073314;28;20762;-67
2022/01/11 10:07:31;;;;;;;6.13;5.45;;;1.70;99.90;;;;;;5073514;28;20732;-67
2022/01/11 10:09:58;;;;;;;7.47;5.05;;;1.70;99.90;;;;;;5073778;28;20184;-67
2022/01/11 10:12:26;;;;;;;7.72;5.65;;;1.70;99.90;;;;;;5073652;28;20291;-67
2022/01/11 10:14:55;;;;;;;6.60;5.22;;;1.80;99.90;;;;;;5073511;28;20223;-68
2022/01/11 10:17:24;;;;;;;5.15;4.65;;;1.80;99.90;;;;;;5073212;28;20208;-67
2022/01/11 10:19:59;;;;;;;5.50;4.85;;;1.90;99.90;;;;;;5073562;28;20200;-67
2022/01/11 10:22:27;;;;;;;4.90;4.35;;;2.00;99.90;;;;;;5073552;28;20192;-67
2022/01/11 10:24:56;;;;;;;7.15;4.82;;;2.20;99.90;;;;;;5073407;28;20320;-67
2022/01/11 10:27:26;;;;;;;4.78;4.38;;;2.30;99.90;;;;;;5073317;28;20295;-67
2022/01/11 10:29:54;;;;;;;4.55;4.25;;;2.40;99.90;;;;;;5073501;28;20188;-67
2022/01/11 10:32:25;;;;;;;5.03;4.20;;;2.50;99.90;;;;;;5073511;28;20287;-67
2022/01/11 10:34:53;;;;;;;4.45;4.05;;;2.70;99.90;;;;;;5073583;28;20310;-67
2022/01/11 10:37:33;;;;;;;5.05;4.55;;;2.80;99.90;;;;;;5073569;28;20295;-68
2022/01/11 10:40:13;;;;;;;5.07;4.57;;;3.00;99.90;;;;;;5073468;28;20612;-67
2022/01/11 10:42:45;;;;;;;4.25;3.95;;;3.00;99.90;;;;;;5073418;28;20270;-67
2022/01/11 10:45:14;;;;;;;4.50;3.75;;;3.20;99.90;;;;;;5073555;28;20228;-67
2022/01/11 10:47:43;;;;;;;4.22;3.83;;;3.30;99.90;;;;;;5073316;28;20290;-67
2022/01/11 10:50:13;;;;;;;4.20;3.83;;;3.30;99.90;;;;;;5073316;28;20222;-67
2022/01/11 10:52:42;;;;;;;3.90;3.63;;;3.40;99.90;;;;;;5073738;28;20188;-67
2022/01/11 10:55:15;;;;;;;3.38;3.17;;;3.50;99.90;;;;;;5073238;28;20220;-67
2022/01/11 10:57:43;;;;;;;4.40;3.38;;;3.50;99.90;;;;;;5076276;28;20231;-67
2022/01/11 11:00:20;;;;;;;4.25;3.95;;;3.50;99.90;;;;;;5077188;28;20200;-67
2022/01/11 11:02:51;;;;;;;3.55;3.25;;;3.60;99.90;;;;;;5077108;28;20180;-67
2022/01/11 11:05:24;;;;;;;3.58;3.33;;;3.60;99.90;;;;;;5076943;28;20255;-67
2022/01/11 11:07:57;;;;;;;4.47;3.72;;;3.60;99.90;;;;;;5076452;28;20550;-67
2022/01/11 11:10:35;;;;;;;3.60;3.40;;;3.40;99.90;;;;;;5076473;28;20757;-67
2022/01/11 11:13:03;;;;;;;4.10;3.42;;;3.30;99.90;;;;;;5076789;28;20643;-68
2022/01/11 11:15:32;;;;;;;4.32;3.60;;;3.20;99.90;;;;;;5076807;28;20314;-68
2022/01/11 11:17:59;;;;;;;3.80;3.53;;;3.10;99.90;;;;;;5077340;28;20291;-68
2022/01/11 11:20:27;;;;;;;5.38;4.10;;;3.20;99.90;;;;;;5076814;28;20291;-67
2022/01/11 11:22:54;;;;;;;4.50;3.88;;;3.10;99.90;;;;;;5076752;28;20196;-68
2022/01/11 11:25:21;;;;;;;4.05;3.65;;;3.10;99.90;;;;;;5076499;28;20277;-68
2022/01/11 11:27:49;;;;;;;4.38;3.97;;;3.20;99.90;;;;;;5076320;28;20295;-68
2022/01/11 11:30:16;;;;;;;3.72;3.15;;;3.20;99.90;;;;;;5076674;28;20294;-68
2022/01/11 11:32:46;;;;;;;4.10;3.80;;;3.20;99.90;;;;;;5076293;28;20730;-68
2022/01/11 11:35:14;;;;;;;3.70;3.42;;;3.20;99.90;;;;;;5076781;28;20212;-68
2022/01/11 11:37:43;;;;;;;4.47;4.05;;;3.30;99.90;;;;;;5076389;28;20228;-68
2022/01/11 11:40:14;;;;;;;11.77;6.22;;;3.30;99.90;;;;;;5076258;28;20302;-68
2022/01/11 11:42:41;;;;;;;10.52;5.82;;;3.20;99.90;;;;;;5076132;28;20271;-69
2022/01/11 11:45:22;;;;;;;10.00;6.00;;;3.00;99.90;;;;;;5076525;28;20278;-70
2022/01/11 11:47:49;;;;;;;5.15;4.72;;;2.90;99.90;;;;;;5077120;28;20187;-70
2022/01/11 11:50:19;;;;;;;6.18;5.05;;;2.90;99.90;;;;;;5076627;28;20291;-70
2022/01/11 11:52:48;;;;;;;5.10;4.60;;;2.80;99.90;;;;;;5076081;28;20590;-70
2022/01/11 11:55:20;;;;;;;4.47;4.05;;;2.80;99.90;;;;;;5076923;28;20646;-69
2022/01/11 11:57:48;;;;;;;6.00;3.65;;;2.80;99.90;;;;;;5076505;28;20280;-70
2022/01/11 12:00:20;;;;;;;4.07;3.78;;;2.90;99.90;;;;;;5076094;28;20294;-70
2022/01/11 12:02:48;;;;;;;3.70;3.45;;;3.00;99.90;;;;;;5076400;28;20223;-70
2022/01/11 12:05:37;;;;;;;5.70;4.28;;;3.00;99.90;;;;;;5075940;28;20270;-69
2022/01/11 12:08:30;;;;;;;4.40;4.00;;;3.10;99.90;;;;;;5074983;28;20188;-68
2022/01/11 12:11:02;;;;;;;4.95;4.55;;;3.00;99.90;;;;;;5075825;28;20196;-68
2022/01/11 12:13:47;;;;;;;3.72;3.42;;;3.00;99.90;;;;;;5076151;28;20275;-68
2022/01/11 12:16:41;;;;;;;3.60;3.30;;;3.00;99.90;;;;;;5075503;28;20247;-68
2022/01/11 12:19:42;;;;;;;4.30;4.00;;;3.00;99.90;;;;;;5076569;28;20195;-68
2022/01/11 12:22:19;;;;;;;3.80;3.50;;;2.80;99.90;;;;;;5071559;28;20209;-69
2022/01/11 12:24:48;;;;;;;4.05;3.75;;;2.80;99.90;;;;;;5075544;28;20281;-71
2022/01/11 12:27:18;;;;;;;4.05;3.70;;;2.80;99.90;;;;;;5075532;28;20562;-70
2022/01/11 12:30:01;;;;;;;3.83;3.53;;;2.80;99.90;;;;;;5075566;28;20188;-71
2022/01/11 12:32:32;;;;;;;4.82;3.70;;;2.80;99.90;;;;;;5075202;28;20216;-71
2022/01/11 12:35:09;;;;;;;5.15;3.63;;;2.80;99.90;;;;;;5075129;28;20660;-70
2022/01/11 12:37:40;;;;;;;4.25;3.40;;;2.80;99.90;;;;;;5075160;28;20726;-70
2022/01/11 12:40:25;;;;;;;3.80;3.50;;;2.90;99.90;;;;;;5075925;28;20286;-71
2022/01/11 12:43:00;;;;;;;3.65;3.40;;;3.10;99.90;;;;;;5075410;28;20273;-71
2022/01/11 12:46:05;;;;;;;3.90;3.45;;;3.10;99.90;;;;;;5075083;28;20279;-71
2022/01/11 12:48:53;;;;;;;3.20;3.00;;;3.10;99.90;;;;;;4993634;28;20207;-71
2022/01/11 12:51:28;;;;;;;3.15;2.95;;;3.30;99.90;;;;;;4993731;28;20741;-71
2022/01/11 12:54:32;;;;;;;4.10;3.78;;;3.30;99.90;;;;;;5047848;28;20226;-71
2022/01/11 12:57:01;;;;;;;4.20;3.80;;;3.20;99.90;;;;;;4993219;28;20805;-71
2022/01/11 12:59:31;;;;;;;4.15;3.67;;;3.20;99.90;;;;;;4994002;28;20294;-70
2022/01/11 13:02:09;;;;;;;4.00;3.72;;;3.10;99.90;;;;;;5039441;28;20215;-71
2022/01/11 13:04:43;;;;;;;4.38;3.97;;;3.10;99.90;;;;;;5078090;28;20223;-71
2022/01/11 13:07:19;;;;;;;3.72;3.50;;;3.00;99.90;;;;;;5078310;28;20208;-69
2022/01/11 13:09:48;;;;;;;6.40;4.80;;;2.90;99.90;;;;;;5078875;28;20271;-70
2022/01/11 13:12:27;;;;;;;6.40;5.63;;;2.80;99.90;;;;;;5078807;28;20717;-70
2022/01/11 13:15:07;;;;;;;5.65;4.15;;;2.70;99.90;;;;;;5078502;28;20773;-70
2022/01/11 13:18:07;;;;;;;4.82;3.95;;;2.70;99.90;;;;;;5078676;28;20635;-71
2022/01/11 13:20:38;;;;;;;4.28;3.97;;;2.60;99.90;;;;;;5077572;28;20184;-69
2022/01/11 13:23:11;;;;;;;4.38;4.05;;;2.50;99.90;;;;;;5077119;28;20253;-68
2022/01/11 13:25:42;;;;;;;4.15;3.80;;;2.50;99.90;;;;;;5074519;28;20691;-68
2022/01/11 13:28:09;;;;;;;3.50;3.30;;;2.50;99.90;;;;;;5074362;28;20184;-68
2022/01/11 13:30:38;;;;;;;3.88;3.55;;;2.50;99.90;;;;;;5074302;28;20629;-68
2022/01/11 13:33:05;;;;;;;3.45;3.15;;;2.50;99.90;;;;;;5074339;28;20622;-68
2022/01/11 13:35:32;;;;;;;3.38;3.17;;;2.50;99.90;;;;;;5073944;28;20695;-69
2022/01/11 13:38:12;;;;;;;3.13;2.92;;;2.50;99.90;;;;;;5074279;28;20294;-68
2022/01/11 13:40:40;;;;;;;3.05;2.70;;;2.50;99.90;;;;;;5074409;28;20279;-68
2022/01/11 13:43:11;;;;;;;3.60;3.35;;;2.50;99.90;;;;;;5074113;28;20204;-68
2022/01/11 13:45:41;;;;;;;3.10;2.90;;;2.50;99.90;;;;;;5074500;28;20219;-69
2022/01/11 13:48:17;;;;;;;4.22;3.83;;;2.50;99.90;;;;;;5074186;28;20566;-69
2022/01/11 13:50:53;;;;;;;4.38;3.97;;;2.40;99.90;;;;;;5074277;28;20188;-69
2022/01/11 13:53:23;;;;;;;3.97;3.63;;;2.20;99.90;;;;;;5076599;28;20231;-69
2022/01/11 13:55:51;;;;;;;3.63;3.42;;;2.10;99.90;;;;;;5075293;28;20302;-69
2022/01/11 13:58:19;;;;;;;3.33;3.13;;;2.10;99.90;;;;;;5074448;28;20672;-69
2022/01/11 14:00:45;;;;;;;3.03;2.83;;;2.10;99.90;;;;;;5073950;28;20287;-69
2022/01/11 14:03:15;;;;;;;3.28;3.08;;;2.20;99.90;;;;;;5073623;28;20649;-69
2022/01/11 14:05:42;;;;;;;3.25;3.05;;;2.20;99.90;;;;;;5073913;28;20310;-68
2022/01/11 14:08:11;;;;;;;3.67;3.38;;;2.10;99.90;;;;;;5073789;28;20278;-69
2022/01/11 14:10:52;;;;;;;3.75;3.53;;;2.10;99.90;;;;;;5073410;28;20235;-69
2022/01/11 14:13:20;;;;;;;3.85;3.55;;;2.00;99.90;;;;;;5073486;28;20646;-69
2022/01/11 14:15:47;;;;;;;5.32;3.78;;;2.00;99.90;;;;;;5073615;28;20235;-68
2022/01/11 14:18:16;;;;;;;3.80;3.60;;;2.00;99.90;;;;;;5073636;28;20290;-68
2022/01/11 14:20:44;;;;;;;3.90;3.63;;;2.00;99.90;;;;;;5073555;28;20227;-68
2022/01/11 14:23:13;;;;;;;3.67;3.47;;;1.90;99.90;;;;;;5073558;28;20202;-67
2022/01/11 14:25:43;;;;;;;3.85;3.58;;;2.00;99.90;;;;;;5073164;28;20227;-67
2022/01/11 14:28:12;;;;;;;3.97;3.53;;;2.00;99.90;;;;;;5073217;28;20652;-67
2022/01/11 14:30:47;;;;;;;3.97;3.67;;;2.00;99.90;;;;;;5072936;28;20295;-69
2022/01/11 14:33:27;;;;;;;3.83;3.53;;;2.00;99.90;;;;;;5073634;28;20270;-68
2022/01/11 14:35:59;;;;;;;4.93;4.53;;;1.90;99.90;;;;;;5073652;28;20250;-68
2022/01/11 14:38:39;;;;;;;4.72;4.32;;;1.90;99.90;;;;;;5073368;28;20220;-68
2022/01/11 14:41:08;;;;;;;5.68;4.20;;;1.90;99.90;;;;;;5074150;28;20249;-69
2022/01/11 14:43:36;;;;;;;4.25;3.95;;;1.90;99.90;;;;;;5073354;28;20286;-69
2022/01/11 14:46:15;;;;;;;5.30;3.83;;;1.80;99.90;;;;;;5073158;28;20243;-69
2022/01/11 14:48:44;;;;;;;4.38;4.07;;;1.90;99.90;;;;;;5073004;28;20271;-69
2022/01/11 14:51:13;;;;;;;4.43;4.03;;;1.90;99.90;;;;;;5072928;28;20290;-69
2022/01/11 14:53:42;;;;;;;4.32;3.95;;;1.80;99.90;;;;;;5073354;28;20299;-69
2022/01/11 14:56:16;;;;;;;6.13;4.60;;;1.90;99.90;;;;;;5072847;28;20695;-69
2022/01/11 14:58:46;;;;;;;5.60;5.05;;;1.70;99.90;;;;;;5072981;28;20195;-69
2022/01/11 15:01:16;;;;;;;4.53;4.22;;;1.70;99.90;;;;;;5073356;28;20227;-69
2022/01/11 15:03:45;;;;;;;4.38;4.00;;;1.60;99.90;;;;;;5072987;28;20215;-69
2022/01/11 15:06:16;;;;;;;4.93;4.43;;;1.60;99.90;;;;;;5073031;28;20260;-69
2022/01/11 15:08:47;;;;;;;5.68;5.07;;;1.60;99.90;;;;;;5073465;28;20220;-68
2022/01/11 15:11:18;;;;;;;5.45;4.95;;;1.60;99.90;;;;;;5072815;28;20200;-67
2022/01/11 15:13:48;;;;;;;4.72;4.32;;;1.60;99.90;;;;;;5073393;28;20219;-67
2022/01/11 15:16:19;;;;;;;5.15;4.10;;;1.50;99.90;;;;;;5072842;28;20286;-68
2022/01/11 15:18:47;;;;;;;4.32;3.97;;;1.40;99.90;;;;;;5073090;28;20196;-67
2022/01/11 15:21:16;;;;;;;4.47;4.07;;;1.30;99.90;;;;;;5073077;28;20200;-68
2022/01/11 15:23:43;;;;;;;4.68;4.18;;;1.30;99.90;;;;;;5073592;28;20211;-67
2022/01/11 15:26:11;;;;;;;5.40;4.90;;;1.30;99.90;;;;;;5073104;28;20289;-68
2022/01/11 15:28:40;;;;;;;4.65;4.25;;;1.30;99.90;;;;;;5072844;28;20291;-67
2022/01/11 15:31:07;;;;;;;3.90;3.60;;;1.30;99.90;;;;;;5073987;28;20619;-68
2022/01/11 15:33:34;;;;;;;4.07;3.78;;;1.30;99.90;;;;;;5087775;22;20247;-70
2022/01/11 15:36:01;;;;;;;4.22;3.92;;;1.30;99.90;;;;;;5074168;28;20207;-70
2022/01/11 15:38:29;;;;;;;4.03;3.72;;;1.30;99.90;;;;;;5074469;28;20651;-70
2022/01/11 15:40:59;;;;;;;6.10;4.95;;;1.30;99.90;;;;;;5076412;28;20258;-69
2022/01/11 15:43:29;;;;;;;4.95;4.50;;;1.20;99.90;;;;;;5079190;28;20219;-71
2022/01/11 15:45:59;;;;;;;4.88;4.20;;;1.20;99.90;;;;;;5079726;28;20703;-68
2022/01/11 15:48:28;;;;;;;3.92;3.47;;;1.20;99.90;;;;;;5079704;28;20207;-70
2022/01/11 15:50:55;;;;;;;4.30;4.00;;;1.10;99.90;;;;;;5080189;28;20214;-70
2022/01/11 15:53:24;;;;;;;4.30;3.90;;;1.10;99.90;;;;;;5080597;28;20220;-70
2022/01/11 15:55:52;;;;;;;4.10;3.67;;;1.10;99.90;;;;;;5080293;28;20229;-70
2022/01/11 15:58:19;;;;;;;5.07;3.83;;;1.20;99.90;;;;;;5080187;28;20200;-70
2022/01/11 16:00:47;;;;;;;4.35;3.95;;;1.20;99.90;;;;;;5077571;28;20202;-70
2022/01/11 16:03:15;;;;;;;4.90;4.40;;;1.20;99.90;;;;;;5077911;28;20613;-70
2022/01/11 16:05:42;;;;;;;4.47;4.07;;;1.10;99.90;;;;;;5077064;28;20287;-69
2022/01/11 16:08:11;;;;;;;5.30;4.63;;;1.10;99.90;;;;;;5076872;28;20243;-68
2022/01/11 16:10:39;;;;;;;4.82;4.43;;;1.10;99.90;;;;;;5076446;28;20310;-68
2022/01/11 16:13:06;;;;;;;4.28;3.97;;;1.10;99.90;;;;;;5075423;28;20580;-68
2022/01/11 16:15:34;;;;;;;4.63;3.88;;;1.10;99.90;;;;;;5075735;28;20296;-68
2022/01/11 16:18:01;;;;;;;4.57;4.18;;;1.00;99.90;;;;;;5076099;28;20294;-68
2022/01/11 16:20:33;;;;;;;4.82;4.38;;;1.00;99.90;;;;;;5075916;28;20659;-68
2022/01/11 16:23:00;;;;;;;4.95;4.38;;;1.00;99.90;;;;;;5075368;28;20255;-68
2022/01/11 16:25:28;;;;;;;4.78;4.38;;;1.00;99.90;;;;;;5075816;28;20286;-67
2022/01/11 16:27:56;;;;;;;4.85;4.40;;;1.00;99.90;;;;;;5075656;28;20220;-67
2022/01/11 16:30:26;;;;;;;4.43;4.03;;;1.00;99.90;;;;;;5075446;28;20276;-68
2022/01/11 16:32:54;;;;;;;4.90;4.40;;;1.00;99.90;;;;;;5075123;28;20603;-68
2022/01/11 16:35:22;;;;;;;5.40;4.82;;;1.00;99.90;;;;;;5075287;28;20291;-68
2022/01/11 16:37:51;;;;;;;4.68;4.28;;;1.00;99.90;;;;;;5075257;28;20278;-68
2022/01/11 16:42:38;;;;;;;4.88;4.40;;;0.90;99.90;;;;;;5075260;28;20240;-68
2022/01/11 16:43:19;;;;;;;4.35;4.03;;;0.90;99.90;;;;;;5074743;28;20227;-68
2022/01/11 16:45:51;;;;;;;4.40;4.03;;;0.90;99.90;;;;;;5074910;28;20199;-68
2022/01/11 16:48:20;;;;;;;5.50;4.53;;;0.80;99.90;;;;;;5075586;28;20615;-68
2022/01/11 16:50:48;;;;;;;6.13;4.78;;;0.80;99.90;;;;;;5075245;28;20259;-68
2022/01/11 16:53:20;;;;;;;6.10;5.43;;;0.80;99.90;;;;;;5074923;28;20258;-68
2022/01/11 16:55:47;;;;;;;5.32;4.82;;;0.80;99.90;;;;;;5074292;28;20224;-68
2022/01/11 16:58:14;;;;;;;4.68;4.25;;;0.80;99.90;;;;;;5074689;28;20196;-68
2022/01/11 17:00:41;;;;;;;5.65;4.28;;;0.80;99.90;;;;;;5075079;28;20189;-68
2022/01/11 17:03:10;;;;;;;5.45;3.90;;;0.80;99.90;;;;;;5074773;28;20215;-68
2022/01/11 17:05:37;;;;;;;4.28;3.88;;;0.80;99.90;;;;;;5074819;28;20623;-68
2022/01/11 17:08:05;;;;;;;5.95;3.97;;;0.80;99.90;;;;;;5075709;28;20600;-68
2022/01/11 17:10:34;;;;;;;4.30;4.00;;;0.80;99.90;;;;;;5074740;28;20258;-65
2022/01/11 17:13:01;;;;;;;4.50;4.10;;;0.80;99.90;;;;;;5074823;28;20247;-67
2022/01/11 17:15:29;;;;;;;4.28;3.97;;;0.80;99.90;;;;;;5074422;28;20678;-67
2022/01/11 17:17:56;;;;;;;4.47;3.90;;;0.80;99.90;;;;;;5074707;28;20198;-67
2022/01/11 17:20:24;;;;;;;5.05;4.55;;;0.80;99.90;;;;;;5074504;28;20203;-67
2022/01/11 17:22:51;;;;;;;5.13;4.20;;;0.80;99.90;;;;;;5074114;28;20247;-67
2022/01/11 17:25:19;;;;;;;4.55;4.20;;;0.80;99.90;;;;;;5074406;28;20299;-67
2022/01/11 17:27:48;;;;;;;4.10;3.80;;;0.80;99.90;;;;;;5074401;28;20266;-67
2022/01/11 17:30:18;;;;;;;5.22;4.72;;;0.80;99.90;;;;;;5074412;28;20200;-67
2022/01/11 17:32:46;;;;;;;4.90;4.50;;;0.80;99.90;;;;;;5073918;28;20638;-67
2022/01/11 17:35:14;;;;;;;5.65;4.63;;;0.70;99.90;;;;;;5074875;28;20208;-67
2022/01/11 17:37:42;;;;;;;5.00;4.57;;;0.60;99.90;;;;;;5073225;28;20290;-67
2022/01/11 17:40:10;;;;;;;5.10;4.68;;;0.60;99.90;;;;;;5074044;28;20196;-67
2022/01/11 17:42:39;;;;;;;4.97;4.47;;;0.60;99.90;;;;;;5074026;28;20224;-67
2022/01/11 17:45:09;;;;;;;4.50;4.10;;;0.60;99.90;;;;;;5073582;28;20207;-67
2022/01/11 17:47:35;;;;;;;4.35;4.05;;;0.60;99.90;;;;;;5073803;28;20222;-67
2022/01/11 17:50:04;;;;;;;5.80;4.45;;;0.60;99.90;;;;;;5073741;28;20291;-67
2022/01/11 17:52:31;;;;;;;4.50;4.15;;;0.60;99.90;;;;;;5073903;28;20307;-67
2022/01/11 17:54:57;;;;;;;4.50;4.10;;;0.70;99.90;;;;;;5073849;28;20206;-68
2022/01/11 17:57:25;;;;;;;4.68;4.10;;;0.70;99.90;;;;;;5073892;28;20192;-67
2022/01/11 17:59:52;;;;;;;5.13;4.72;;;0.70;99.90;;;;;;5073932;28;20290;-67
2022/01/11 18:02:20;;;;;;;5.25;4.68;;;0.70;99.90;;;;;;5073534;28;20291;-67
2022/01/11 18:04:47;;;;;;;4.35;4.05;;;0.60;99.90;;;;;;5073419;28;20670;-66
2022/01/11 18:07:15;;;;;;;5.63;5.13;;;0.60;99.90;;;;;;5072621;28;20234;-66
2022/01/11 18:09:42;;;;;;;4.90;4.50;;;0.60;99.90;;;;;;5073654;28;20196;-67
2022/01/11 18:12:11;;;;;;;5.35;4.75;;;0.50;99.90;;;;;;5073725;28;20199;-67
2022/01/11 18:14:37;;;;;;;6.22;5.10;;;0.50;99.90;;;;;;5074004;28;20240;-67
2022/01/11 18:17:05;;;;;;;4.93;4.53;;;0.40;99.90;;;;;;5073861;28;20227;-67
2022/01/11 18:19:34;;;;;;;4.97;4.50;;;0.40;99.90;;;;;;5073283;28;20199;-67
2022/01/11 18:22:01;;;;;;;5.05;4.55;;;0.40;99.90;;;;;;5073635;28;20200;-67